sensor_id;sensor_type;location;lat;lon;timestamp;pressure;altitude;pressure_sealevel;temperature;humidity
53041;BME280;39326;42.650;23.248;2023-05-18T00:01:17;92085.81;;;10.84;91.97
53041;BME280;39326;42.650;23.248;2023-05-18T00:03:43;92074.31;;;10.87;91.62
53041;BME280;39326;42.650;23.248;2023-05-18T00:06:09;92077.81;;;10.81;91.45
53041;BME280;39326;42.650;23.248;2023-05-18T00:08:35;92075.19;;;10.77;91.64
53041;BME280;39326;42.650;23.248;2023-05-18T00:11:02;92073.72;;;10.73;91.77
53041;BME280;39326;42.650;23.248;2023-05-18T00:13:28;92077.56;;;10.68;91.88
53041;BME280;39326;42.650;23.248;2023-05-18T00:15:54;92070.72;;;10.63;92.21
53041;BME280;39326;42.650;23.248;2023-05-18T00:18:20;92068.44;;;10.66;92.45
53041;BME280;39326;42.650;23.248;2023-05-18T00:20:49;92068.38;;;10.73;92.50
53041;BME280;39326;42.650;23.248;2023-05-18T00:23:15;92071.53;;;10.57;93.27
53041;BME280;39326;42.650;23.248;2023-05-18T00:25:41;92074.22;;;10.57;93.39
53041;BME280;39326;42.650;23.248;2023-05-18T00:28:06;92076.88;;;10.57;93.19
53041;BME280;39326;42.650;23.248;2023-05-18T00:30:32;92077.59;;;10.65;93.16
53041;BME280;39326;42.650;23.248;2023-05-18T00:32:57;92076.00;;;10.71;92.73
53041;BME280;39326;42.650;23.248;2023-05-18T00:35:23;92072.19;;;10.72;92.74
53041;BME280;39326;42.650;23.248;2023-05-18T00:37:48;92085.13;;;10.73;92.96
53041;BME280;39326;42.650;23.248;2023-05-18T00:40:14;92076.00;;;10.71;93.36
53041;BME280;39326;42.650;23.248;2023-05-18T00:42:39;92078.28;;;10.72;93.02
53041;BME280;39326;42.650;23.248;2023-05-18T00:45:05;92083.91;;;10.81;92.52
53041;BME280;39326;42.650;23.248;2023-05-18T00:47:31;92078.94;;;10.83;92.23
53041;BME280;39326;42.650;23.248;2023-05-18T00:49:56;92076.28;;;10.83;92.22
53041;BME280;39326;42.650;23.248;2023-05-18T00:52:22;92069.75;;;10.88;92.20
53041;BME280;39326;42.650;23.248;2023-05-18T00:54:49;92073.22;;;10.85;92.40
53041;BME280;39326;42.650;23.248;2023-05-18T00:57:15;92076.78;;;10.71;92.89
53041;BME280;39326;42.650;23.248;2023-05-18T00:59:43;92060.13;;;10.56;93.57
53041;BME280;39326;42.650;23.248;2023-05-18T01:02:10;92059.78;;;10.54;93.47
53041;BME280;39326;42.650;23.248;2023-05-18T01:04:36;92054.53;;;10.44;93.96
53041;BME280;39326;42.650;23.248;2023-05-18T01:07:02;92053.03;;;10.39;94.20
53041;BME280;39326;42.650;23.248;2023-05-18T01:09:31;92058.28;;;10.50;93.86
53041;BME280;39326;42.650;23.248;2023-05-18T01:24:42;92058.63;;;10.55;93.93
53041;BME280;39326;42.650;23.248;2023-05-18T01:27:09;92060.44;;;10.66;93.65
53041;BME280;39326;42.650;23.248;2023-05-18T01:29:41;92059.63;;;10.69;93.59
53041;BME280;39326;42.650;23.248;2023-05-18T01:32:07;92071.47;;;10.68;93.44
53041;BME280;39326;42.650;23.248;2023-05-18T01:34:33;92063.47;;;10.64;93.74
53041;BME280;39326;42.650;23.248;2023-05-18T01:36:58;92064.94;;;10.72;93.29
53041;BME280;39326;42.650;23.248;2023-05-18T01:39:24;92062.28;;;10.72;93.36
53041;BME280;39326;42.650;23.248;2023-05-18T01:41:58;92068.00;;;10.71;93.38
53041;BME280;39326;42.650;23.248;2023-05-18T01:44:38;92070.72;;;10.67;93.56
53041;BME280;39326;42.650;23.248;2023-05-18T01:47:14;92078.63;;;10.74;93.26
53041;BME280;39326;42.650;23.248;2023-05-18T01:50:58;92072.53;;;10.77;93.37
53041;BME280;39326;42.650;23.248;2023-05-18T01:52:59;92062.38;;;10.61;93.98
53041;BME280;39326;42.650;23.248;2023-05-18T01:55:28;92069.56;;;10.68;93.68
53041;BME280;39326;42.650;23.248;2023-05-18T01:57:55;92065.66;;;10.76;93.27
53041;BME280;39326;42.650;23.248;2023-05-18T02:00:22;92050.88;;;10.68;93.52
53041;BME280;39326;42.650;23.248;2023-05-18T02:02:48;92061.69;;;10.50;94.79
53041;BME280;39326;42.650;23.248;2023-05-18T02:05:14;92067.31;;;10.63;94.41
53041;BME280;39326;42.650;23.248;2023-05-18T02:07:40;92064.94;;;10.72;93.83
53041;BME280;39326;42.650;23.248;2023-05-18T02:10:08;92072.53;;;10.77;93.54
53041;BME280;39326;42.650;23.248;2023-05-18T02:12:34;92071.41;;;10.75;93.41
53041;BME280;39326;42.650;23.248;2023-05-18T02:14:59;92074.47;;;10.70;93.80
53041;BME280;39326;42.650;23.248;2023-05-18T02:17:30;92075.63;;;10.72;93.54
53041;BME280;39326;42.650;23.248;2023-05-18T02:19:56;92074.16;;;10.64;94.09
53041;BME280;39326;42.650;23.248;2023-05-18T02:22:21;92077.16;;;10.70;93.47
53041;BME280;39326;42.650;23.248;2023-05-18T02:24:47;92079.44;;;10.71;93.31
53041;BME280;39326;42.650;23.248;2023-05-18T02:27:12;92080.88;;;10.79;92.90
53041;BME280;39326;42.650;23.248;2023-05-18T02:29:39;92074.47;;;10.70;93.11
53041;BME280;39326;42.650;23.248;2023-05-18T02:32:05;92078.78;;;10.56;93.77
53041;BME280;39326;42.650;23.248;2023-05-18T02:34:30;92073.13;;;10.51;94.14
53041;BME280;39326;42.650;23.248;2023-05-18T02:36:57;92083.09;;;10.43;94.33
53041;BME280;39326;42.650;23.248;2023-05-18T02:39:27;92071.25;;;10.48;94.25
53041;BME280;39326;42.650;23.248;2023-05-18T02:41:53;92076.59;;;10.48;94.24
53041;BME280;39326;42.650;23.248;2023-05-18T02:44:18;92080.28;;;10.57;94.02
53041;BME280;39326;42.650;23.248;2023-05-18T02:46:44;92079.47;;;10.64;93.60
53041;BME280;39326;42.650;23.248;2023-05-18T02:49:09;92085.63;;;10.57;94.10
53041;BME280;39326;42.650;23.248;2023-05-18T02:51:35;92086.38;;;10.61;93.59
53041;BME280;39326;42.650;23.248;2023-05-18T02:54:00;92086.03;;;10.56;94.27
53041;BME280;39326;42.650;23.248;2023-05-18T02:56:26;92084.47;;;10.62;93.95
53041;BME280;39326;42.650;23.248;2023-05-18T02:58:52;92087.16;;;10.58;93.94
53041;BME280;39326;42.650;23.248;2023-05-18T03:01:25;92099.31;;;10.63;93.87
53041;BME280;39326;42.650;23.248;2023-05-18T03:03:54;92104.25;;;10.65;93.76
53041;BME280;39326;42.650;23.248;2023-05-18T03:06:22;92107.69;;;10.65;94.00
53041;BME280;39326;42.650;23.248;2023-05-18T03:08:52;92120.63;;;10.63;94.07
53041;BME280;39326;42.650;23.248;2023-05-18T03:11:21;92119.91;;;10.59;94.15
53041;BME280;39326;42.650;23.248;2023-05-18T03:13:47;92126.47;;;10.47;94.79
53041;BME280;39326;42.650;23.248;2023-05-18T03:16:13;92127.94;;;10.55;93.89
53041;BME280;39326;42.650;23.248;2023-05-18T03:18:39;92128.00;;;10.48;94.42
53041;BME280;39326;42.650;23.248;2023-05-18T03:21:04;92132.63;;;10.41;94.87
53041;BME280;39326;42.650;23.248;2023-05-18T03:23:30;92138.31;;;10.43;95.09
53041;BME280;39326;42.650;23.248;2023-05-18T03:25:56;92144.72;;;10.52;94.59
53041;BME280;39326;42.650;23.248;2023-05-18T03:28:21;92128.75;;;10.49;95.03
53041;BME280;39326;42.650;23.248;2023-05-18T03:30:47;92143.19;;;10.55;94.54
53041;BME280;39326;42.650;23.248;2023-05-18T03:33:13;92145.50;;;10.53;94.09
53041;BME280;39326;42.650;23.248;2023-05-18T03:35:38;92142.09;;;10.45;94.75
53041;BME280;39326;42.650;23.248;2023-05-18T03:38:05;92154.31;;;10.43;94.91
53041;BME280;39326;42.650;23.248;2023-05-18T03:40:31;92149.72;;;10.43;94.64
53041;BME280;39326;42.650;23.248;2023-05-18T03:42:56;92142.19;;;10.34;94.90
53041;BME280;39326;42.650;23.248;2023-05-18T03:45:21;92148.22;;;10.39;94.50
53041;BME280;39326;42.650;23.248;2023-05-18T03:47:47;92154.34;;;10.35;95.00
53041;BME280;39326;42.650;23.248;2023-05-18T03:50:13;92145.97;;;10.37;95.13
53041;BME280;39326;42.650;23.248;2023-05-18T03:52:39;92154.00;;;10.26;95.40
53041;BME280;39326;42.650;23.248;2023-05-18T03:55:05;92158.19;;;10.31;95.61
53041;BME280;39326;42.650;23.248;2023-05-18T03:57:31;92156.59;;;10.41;95.24
53041;BME280;39326;42.650;23.248;2023-05-18T03:59:57;92154.00;;;10.33;95.45
53041;BME280;39326;42.650;23.248;2023-05-18T04:02:23;92165.31;;;10.45;95.02
53041;BME280;39326;42.650;23.248;2023-05-18T04:04:49;92160.44;;;10.40;95.64
53041;BME280;39326;42.650;23.248;2023-05-18T04:07:18;92162.28;;;10.46;95.26
53041;BME280;39326;42.650;23.248;2023-05-18T04:09:47;92163.75;;;10.51;94.92
53041;BME280;39326;42.650;23.248;2023-05-18T04:12:13;92166.09;;;10.45;94.99
53041;BME280;39326;42.650;23.248;2023-05-18T04:14:38;92170.25;;;10.50;94.68
53041;BME280;39326;42.650;23.248;2023-05-18T04:17:06;92174.06;;;10.52;94.62
53041;BME280;39326;42.650;23.248;2023-05-18T04:19:35;92174.44;;;10.51;94.74
53041;BME280;39326;42.650;23.248;2023-05-18T04:22:02;92172.09;;;10.56;94.57
53041;BME280;39326;42.650;23.248;2023-05-18T04:24:31;92175.91;;;10.59;94.79
53041;BME280;39326;42.650;23.248;2023-05-18T04:26:59;92174.41;;;10.54;94.93
53041;BME280;39326;42.650;23.248;2023-05-18T04:29:25;92169.84;;;10.58;94.88
53041;BME280;39326;42.650;23.248;2023-05-18T04:31:52;92170.59;;;10.55;95.47
53041;BME280;39326;42.650;23.248;2023-05-18T04:34:18;92181.00;;;10.35;95.96
53041;BME280;39326;42.650;23.248;2023-05-18T04:36:43;92181.25;;;10.55;95.12
53041;BME280;39326;42.650;23.248;2023-05-18T04:39:09;92179.69;;;10.65;95.17
53041;BME280;39326;42.650;23.248;2023-05-18T04:41:36;92180.81;;;10.68;95.23
53041;BME280;39326;42.650;23.248;2023-05-18T04:44:02;92195.63;;;10.72;95.04
53041;BME280;39326;42.650;23.248;2023-05-18T04:46:28;92191.81;;;10.70;94.48
53041;BME280;39326;42.650;23.248;2023-05-18T04:48:54;92194.91;;;10.68;95.05
53041;BME280;39326;42.650;23.248;2023-05-18T04:51:22;92193.66;;;10.80;94.71
53041;BME280;39326;42.650;23.248;2023-05-18T04:53:48;92196.69;;;10.82;94.82
53041;BME280;39326;42.650;23.248;2023-05-18T04:56:18;92198.94;;;10.91;94.82
53041;BME280;39326;42.650;23.248;2023-05-18T04:58:47;92193.59;;;10.91;94.50
53041;BME280;39326;42.650;23.248;2023-05-18T05:01:14;92200.81;;;10.94;94.44
53041;BME280;39326;42.650;23.248;2023-05-18T05:03:43;92207.22;;;11.03;94.38
53041;BME280;39326;42.650;23.248;2023-05-18T05:06:09;92218.66;;;11.00;94.10
53041;BME280;39326;42.650;23.248;2023-05-18T05:08:35;92212.22;;;10.94;94.29
53041;BME280;39326;42.650;23.248;2023-05-18T05:11:02;92217.50;;;11.05;94.07
53041;BME280;39326;42.650;23.248;2023-05-18T05:13:27;92216.41;;;10.99;94.25
53041;BME280;39326;42.650;23.248;2023-05-18T05:15:53;92222.47;;;11.03;93.72
53041;BME280;39326;42.650;23.248;2023-05-18T05:18:18;92226.66;;;11.04;93.77
53041;BME280;39326;42.650;23.248;2023-05-18T05:20:44;92229.34;;;11.00;94.13
53041;BME280;39326;42.650;23.248;2023-05-18T05:23:09;92223.59;;;11.02;94.50
53041;BME280;39326;42.650;23.248;2023-05-18T05:25:35;92227.91;;;10.88;94.93
53041;BME280;39326;42.650;23.248;2023-05-18T05:28:00;92235.06;;;10.99;94.65
53041;BME280;39326;42.650;23.248;2023-05-18T05:30:26;92232.41;;;10.99;94.79
53041;BME280;39326;42.650;23.248;2023-05-18T05:32:51;92235.06;;;11.02;94.49
53041;BME280;39326;42.650;23.248;2023-05-18T05:35:17;92237.06;;;10.87;94.62
53041;BME280;39326;42.650;23.248;2023-05-18T05:37:42;92243.16;;;10.88;95.03
53041;BME280;39326;42.650;23.248;2023-05-18T05:40:08;92239.25;;;11.00;94.61
53041;BME280;39326;42.650;23.248;2023-05-18T05:42:34;92239.31;;;10.93;94.64
53041;BME280;39326;42.650;23.248;2023-05-18T05:45:00;92245.75;;;10.95;94.72
53041;BME280;39326;42.650;23.248;2023-05-18T05:47:26;92245.09;;;10.84;95.05
53041;BME280;39326;42.650;23.248;2023-05-18T05:49:51;92254.31;;;10.72;95.45
53041;BME280;39326;42.650;23.248;2023-05-18T05:52:17;92251.16;;;10.88;95.09
53041;BME280;39326;42.650;23.248;2023-05-18T05:54:42;92249.22;;;10.92;94.95
53041;BME280;39326;42.650;23.248;2023-05-18T05:57:08;92239.66;;;10.95;94.79
53041;BME280;39326;42.650;23.248;2023-05-18T05:59:33;92252.34;;;10.83;95.40
53041;BME280;39326;42.650;23.248;2023-05-18T06:01:58;92249.28;;;10.85;95.36
53041;BME280;39326;42.650;23.248;2023-05-18T06:04:24;92245.03;;;10.91;94.83
53041;BME280;39326;42.650;23.248;2023-05-18T06:06:49;92248.84;;;10.94;94.77
53041;BME280;39326;42.650;23.248;2023-05-18T06:09:15;92254.50;;;11.03;94.69
53041;BME280;39326;42.650;23.248;2023-05-18T06:11:41;92246.81;;;11.08;94.28
53041;BME280;39326;42.650;23.248;2023-05-18T06:14:06;92254.50;;;11.03;94.36
53041;BME280;39326;42.650;23.248;2023-05-18T06:16:32;92258.28;;;11.05;94.29
53041;BME280;39326;42.650;23.248;2023-05-18T06:18:57;92262.47;;;11.06;94.19
53041;BME280;39326;42.650;23.248;2023-05-18T06:21:23;92267.44;;;11.04;94.31
53041;BME280;39326;42.650;23.248;2023-05-18T06:23:49;92266.44;;;10.84;95.02
53041;BME280;39326;42.650;23.248;2023-05-18T06:26:15;92266.16;;;10.64;95.49
53041;BME280;39326;42.650;23.248;2023-05-18T06:28:41;92268.00;;;10.74;95.29
53041;BME280;39326;42.650;23.248;2023-05-18T06:31:06;92274.41;;;10.87;94.90
53041;BME280;39326;42.650;23.248;2023-05-18T06:33:32;92269.03;;;10.95;94.48
53041;BME280;39326;42.650;23.248;2023-05-18T06:35:58;92280.44;;;10.95;94.44
53041;BME280;39326;42.650;23.248;2023-05-18T06:38:24;92272.44;;;10.95;94.72
53041;BME280;39326;42.650;23.248;2023-05-18T06:40:49;92280.09;;;10.93;95.01
53041;BME280;39326;42.650;23.248;2023-05-18T06:43:15;92281.31;;;10.81;95.12
53041;BME280;39326;42.650;23.248;2023-05-18T06:45:40;92289.25;;;10.88;94.63
53041;BME280;39326;42.650;23.248;2023-05-18T06:48:06;92294.94;;;10.94;94.49
53041;BME280;39326;42.650;23.248;2023-05-18T06:50:31;92291.13;;;10.99;94.50
53041;BME280;39326;42.650;23.248;2023-05-18T06:52:56;92296.44;;;11.02;94.17
53041;BME280;39326;42.650;23.248;2023-05-18T06:55:22;92303.66;;;11.05;93.98
53041;BME280;39326;42.650;23.248;2023-05-18T06:57:47;92302.94;;;10.94;94.21
53041;BME280;39326;42.650;23.248;2023-05-18T07:00:13;92312.44;;;11.02;94.00
53041;BME280;39326;42.650;23.248;2023-05-18T07:02:38;92305.19;;;11.03;94.25
53041;BME280;39326;42.650;23.248;2023-05-18T07:05:05;92312.00;;;11.11;93.57
53041;BME280;39326;42.650;23.248;2023-05-18T07:07:34;92313.94;;;11.07;93.93
53041;BME280;39326;42.650;23.248;2023-05-18T07:10:00;92318.50;;;11.06;93.89
53041;BME280;39326;42.650;23.248;2023-05-18T07:12:26;92323.56;;;10.90;94.68
53041;BME280;39326;42.650;23.248;2023-05-18T07:14:52;92324.25;;;11.01;93.60
53041;BME280;39326;42.650;23.248;2023-05-18T07:17:18;92328.03;;;11.07;93.64
53041;BME280;39326;42.650;23.248;2023-05-18T07:19:43;92323.53;;;10.97;94.39
53041;BME280;39326;42.650;23.248;2023-05-18T07:22:08;92327.66;;;11.05;93.81
53041;BME280;39326;42.650;23.248;2023-05-18T07:24:34;92328.88;;;10.97;93.94
53041;BME280;39326;42.650;23.248;2023-05-18T07:26:59;92329.19;;;11.06;93.67
53041;BME280;39326;42.650;23.248;2023-05-18T07:29:25;92332.25;;;11.05;94.16
53041;BME280;39326;42.650;23.248;2023-05-18T07:31:50;92330.34;;;11.05;93.95
53041;BME280;39326;42.650;23.248;2023-05-18T07:34:16;92334.59;;;10.88;94.55
53041;BME280;39326;42.650;23.248;2023-05-18T07:36:41;92335.88;;;10.62;93.72
53041;BME280;39326;42.650;23.248;2023-05-18T07:39:07;92348.78;;;10.78;93.99
53041;BME280;39326;42.650;23.248;2023-05-18T07:41:33;92345.34;;;10.78;94.21
53041;BME280;39326;42.650;23.248;2023-05-18T07:43:59;92341.50;;;10.86;94.28
53041;BME280;39326;42.650;23.248;2023-05-18T07:46:24;92352.88;;;10.94;94.46
53041;BME280;39326;42.650;23.248;2023-05-18T07:48:50;92358.25;;;10.86;94.42
53041;BME280;39326;42.650;23.248;2023-05-18T07:51:15;92354.13;;;10.78;94.65
53041;BME280;39326;42.650;23.248;2023-05-18T07:53:41;92358.34;;;10.72;95.06
53041;BME280;39326;42.650;23.248;2023-05-18T07:56:07;92361.72;;;10.76;94.77
53041;BME280;39326;42.650;23.248;2023-05-18T07:58:34;92367.06;;;10.80;94.97
53041;BME280;39326;42.650;23.248;2023-05-18T08:01:00;92367.06;;;10.83;94.64
53041;BME280;39326;42.650;23.248;2023-05-18T08:03:26;92375.00;;;10.94;93.84
53041;BME280;39326;42.650;23.248;2023-05-18T08:05:52;92379.22;;;10.92;93.21
53041;BME280;39326;42.650;23.248;2023-05-18T08:08:17;92373.88;;;10.92;93.04
53041;BME280;39326;42.650;23.248;2023-05-18T08:10:43;92380.34;;;10.91;93.07
53041;BME280;39326;42.650;23.248;2023-05-18T08:13:08;92388.00;;;10.85;93.37
53041;BME280;39326;42.650;23.248;2023-05-18T08:15:34;92384.94;;;10.90;92.94
53041;BME280;39326;42.650;23.248;2023-05-18T08:18:01;92395.25;;;10.84;92.62
53041;BME280;39326;42.650;23.248;2023-05-18T08:20:27;92392.19;;;10.82;92.80
53041;BME280;39326;42.650;23.248;2023-05-18T08:22:55;92396.75;;;10.82;92.12
53041;BME280;39326;42.650;23.248;2023-05-18T08:25:22;92400.63;;;10.77;91.89
53041;BME280;39326;42.650;23.248;2023-05-18T08:27:48;92404.06;;;10.67;92.22
53041;BME280;39326;42.650;23.248;2023-05-18T08:30:15;92398.38;;;10.61;91.84
53041;BME280;39326;42.650;23.248;2023-05-18T08:32:40;92404.13;;;10.53;91.66
53041;BME280;39326;42.650;23.248;2023-05-18T08:35:07;92406.75;;;10.56;91.66
53041;BME280;39326;42.650;23.248;2023-05-18T08:37:33;92411.34;;;10.56;90.68
53041;BME280;39326;42.650;23.248;2023-05-18T08:40:02;92410.56;;;10.52;90.40
53041;BME280;39326;42.650;23.248;2023-05-18T08:42:33;92418.19;;;10.57;90.67
53041;BME280;39326;42.650;23.248;2023-05-18T08:45:10;92412.50;;;10.48;91.16
53041;BME280;39326;42.650;23.248;2023-05-18T08:47:39;92422.41;;;10.44;91.97
53041;BME280;39326;42.650;23.248;2023-05-18T08:50:05;92419.34;;;10.45;91.43
53041;BME280;39326;42.650;23.248;2023-05-18T08:52:34;92433.03;;;10.58;91.52
53041;BME280;39326;42.650;23.248;2023-05-18T08:55:04;92428.84;;;10.60;91.23
53041;BME280;39326;42.650;23.248;2023-05-18T08:57:32;92426.94;;;10.61;91.34
53041;BME280;39326;42.650;23.248;2023-05-18T08:59:59;92442.91;;;10.68;91.30
53041;BME280;39326;42.650;23.248;2023-05-18T09:02:26;92441.38;;;10.71;91.51
53041;BME280;39326;42.650;23.248;2023-05-18T09:04:52;92441.38;;;10.74;91.59
53041;BME280;39326;42.650;23.248;2023-05-18T09:07:19;92449.00;;;10.79;91.66
53041;BME280;39326;42.650;23.248;2023-05-18T09:09:45;92450.13;;;10.85;91.50
53041;BME280;39326;42.650;23.248;2023-05-18T09:12:12;92456.97;;;10.86;91.54
53041;BME280;39326;42.650;23.248;2023-05-18T09:14:39;92450.47;;;10.87;91.34
53041;BME280;39326;42.650;23.248;2023-05-18T09:17:05;92449.75;;;10.83;91.54
53041;BME280;39326;42.650;23.248;2023-05-18T09:19:31;92455.81;;;10.87;91.49
53041;BME280;39326;42.650;23.248;2023-05-18T09:21:57;92459.28;;;10.84;91.74
53041;BME280;39326;42.650;23.248;2023-05-18T09:24:22;92461.94;;;10.84;91.27
53041;BME280;39326;42.650;23.248;2023-05-18T09:26:48;92460.81;;;10.78;90.98
53041;BME280;39326;42.650;23.248;2023-05-18T09:29:18;92467.28;;;10.70;91.42
53041;BME280;39326;42.650;23.248;2023-05-18T09:31:45;92465.38;;;10.78;91.13
53041;BME280;39326;42.650;23.248;2023-05-18T09:34:12;92468.78;;;10.82;90.94
53041;BME280;39326;42.650;23.248;2023-05-18T09:36:37;92469.94;;;10.84;90.86
53041;BME280;39326;42.650;23.248;2023-05-18T09:39:09;92468.78;;;10.85;91.38
53041;BME280;39326;42.650;23.248;2023-05-18T09:41:39;92465.75;;;10.83;91.57
53041;BME280;39326;42.650;23.248;2023-05-18T09:44:06;92465.34;;;10.88;91.21
53041;BME280;39326;42.650;23.248;2023-05-18T09:46:37;92468.78;;;10.93;91.15
53041;BME280;39326;42.650;23.248;2023-05-18T09:49:04;92473.31;;;10.99;90.94
53041;BME280;39326;42.650;23.248;2023-05-18T09:51:33;92470.63;;;11.06;90.73
53041;BME280;39326;42.650;23.248;2023-05-18T09:53:59;92462.97;;;11.08;90.47
53041;BME280;39326;42.650;23.248;2023-05-18T09:56:26;92477.88;;;11.09;90.74
53041;BME280;39326;42.650;23.248;2023-05-18T09:58:52;92471.34;;;11.14;90.48
53041;BME280;39326;42.650;23.248;2023-05-18T10:01:18;92471.34;;;11.14;90.17
53041;BME280;39326;42.650;23.248;2023-05-18T10:03:43;92472.50;;;11.16;90.35
53041;BME280;39326;42.650;23.248;2023-05-18T10:06:14;92480.56;;;11.02;89.79
53041;BME280;39326;42.650;23.248;2023-05-18T10:08:41;92485.88;;;11.06;89.63
53041;BME280;39326;42.650;23.248;2023-05-18T10:11:09;92487.00;;;11.08;89.34
53041;BME280;39326;42.650;23.248;2023-05-18T10:13:35;92492.34;;;11.08;89.48
53041;BME280;39326;42.650;23.248;2023-05-18T10:16:03;92486.66;;;11.03;89.88
53041;BME280;39326;42.650;23.248;2023-05-18T10:18:31;92491.56;;;11.11;89.36
53041;BME280;39326;42.650;23.248;2023-05-18T10:20:58;92492.69;;;11.18;88.92
53041;BME280;39326;42.650;23.248;2023-05-18T10:23:25;92490.03;;;11.14;89.54
53041;BME280;39326;42.650;23.248;2023-05-18T10:25:52;92491.97;;;11.10;89.63
53041;BME280;39326;42.650;23.248;2023-05-18T10:28:32;92487.38;;;11.18;88.64
53041;BME280;39326;42.650;23.248;2023-05-18T10:31:00;92503.75;;;11.20;88.82
53041;BME280;39326;42.650;23.248;2023-05-18T10:33:29;92500.31;;;11.19;88.83
53041;BME280;39326;42.650;23.248;2023-05-18T10:35:56;92501.06;;;11.20;88.80
53041;BME280;39326;42.650;23.248;2023-05-18T10:38:26;92504.13;;;11.14;88.48
53041;BME280;39326;42.650;23.248;2023-05-18T10:40:54;92504.53;;;11.13;88.74
53041;BME280;39326;42.650;23.248;2023-05-18T10:43:22;92502.97;;;11.19;89.00
53041;BME280;39326;42.650;23.248;2023-05-18T10:45:56;92503.75;;;11.23;88.64
53041;BME280;39326;42.650;23.248;2023-05-18T10:48:23;92508.72;;;11.14;88.65
53041;BME280;39326;42.650;23.248;2023-05-18T10:50:51;92514.88;;;11.04;89.31
53041;BME280;39326;42.650;23.248;2023-05-18T10:53:22;92516.38;;;11.01;88.92
53041;BME280;39326;42.650;23.248;2023-05-18T10:55:49;92512.59;;;10.95;89.22
53041;BME280;39326;42.650;23.248;2023-05-18T10:58:17;92519.44;;;11.03;88.86
53041;BME280;39326;42.650;23.248;2023-05-18T11:00:48;92515.63;;;11.01;89.29
53041;BME280;39326;42.650;23.248;2023-05-18T11:03:16;92522.47;;;11.02;90.00
53041;BME280;39326;42.650;23.248;2023-05-18T11:05:42;92521.38;;;10.92;90.47
53041;BME280;39326;42.650;23.248;2023-05-18T11:08:08;92516.41;;;10.94;90.82
53041;BME280;39326;42.650;23.248;2023-05-18T11:10:38;92520.59;;;11.02;91.33
53041;BME280;39326;42.650;23.248;2023-05-18T11:13:06;92525.50;;;11.18;90.96
53041;BME280;39326;42.650;23.248;2023-05-18T11:18:15;92529.72;;;11.15;91.94
53041;BME280;39326;42.650;23.248;2023-05-18T11:20:44;92521.31;;;11.17;90.27
53041;BME280;39326;42.650;23.248;2023-05-18T11:23:10;92531.63;;;11.15;89.93
53041;BME280;39326;42.650;23.248;2023-05-18T11:25:36;92532.38;;;11.15;90.29
53041;BME280;39326;42.650;23.248;2023-05-18T11:28:07;92527.81;;;11.09;90.12
53041;BME280;39326;42.650;23.248;2023-05-18T11:41:36;92536.94;;;11.08;88.34
53041;BME280;39326;42.650;23.248;2023-05-18T11:49:19;92530.91;;;10.97;88.68
53041;BME280;39326;42.650;23.248;2023-05-18T11:52:07;92541.94;;;10.88;90.32
53041;BME280;39326;42.650;23.248;2023-05-18T11:57:02;92535.81;;;11.09;89.86
53041;BME280;39326;42.650;23.248;2023-05-18T11:59:41;92530.47;;;11.02;89.87
53041;BME280;39326;42.650;23.248;2023-05-18T12:02:08;92538.50;;;11.02;89.67
53041;BME280;39326;42.650;23.248;2023-05-18T12:04:56;92538.88;;;11.00;90.45
53041;BME280;39326;42.650;23.248;2023-05-18T12:07:22;92553.34;;;11.06;90.85
53041;BME280;39326;42.650;23.248;2023-05-18T12:09:59;92550.31;;;11.15;89.92
53041;BME280;39326;42.650;23.248;2023-05-18T12:12:26;92552.94;;;11.19;90.48
53041;BME280;39326;42.650;23.248;2023-05-18T12:14:57;92553.34;;;11.17;89.96
53041;BME280;39326;42.650;23.248;2023-05-18T12:17:28;92552.94;;;11.22;89.60
53041;BME280;39326;42.650;23.248;2023-05-18T12:20:01;92557.19;;;11.09;90.04
53041;BME280;39326;42.650;23.248;2023-05-18T12:22:29;92552.97;;;11.11;89.52
53041;BME280;39326;42.650;23.248;2023-05-18T12:24:54;92560.97;;;11.15;89.86
53041;BME280;39326;42.650;23.248;2023-05-18T12:27:20;92558.66;;;11.21;89.62
53041;BME280;39326;42.650;23.248;2023-05-18T12:29:47;92559.41;;;11.25;88.94
53041;BME280;39326;42.650;23.248;2023-05-18T12:32:12;92556.75;;;11.18;88.74
53041;BME280;39326;42.650;23.248;2023-05-18T12:34:38;92554.09;;;11.18;89.22
53041;BME280;39326;42.650;23.248;2023-05-18T12:37:07;92560.94;;;11.22;88.53
53041;BME280;39326;42.650;23.248;2023-05-18T12:39:33;92564.38;;;11.19;88.79
53041;BME280;39326;42.650;23.248;2023-05-18T12:42:08;92564.00;;;11.13;88.48
53041;BME280;39326;42.650;23.248;2023-05-18T12:44:35;92564.03;;;10.99;88.25
53041;BME280;39326;42.650;23.248;2023-05-18T12:47:01;92552.63;;;11.02;88.42
53041;BME280;39326;42.650;23.248;2023-05-18T12:49:26;92573.19;;;11.09;88.14
53041;BME280;39326;42.650;23.248;2023-05-18T12:51:54;92570.09;;;11.25;88.08
53041;BME280;39326;42.650;23.248;2023-05-18T12:54:27;92564.41;;;11.08;89.25
53041;BME280;39326;42.650;23.248;2023-05-18T12:56:54;92569.78;;;10.98;89.32
53041;BME280;39326;42.650;23.248;2023-05-18T12:59:26;92578.53;;;10.98;89.33
53041;BME280;39326;42.650;23.248;2023-05-18T13:01:53;92571.66;;;11.01;89.59
53041;BME280;39326;42.650;23.248;2023-05-18T13:04:19;92576.56;;;11.20;88.81
53041;BME280;39326;42.650;23.248;2023-05-18T13:06:44;92573.91;;;11.24;88.23
53041;BME280;39326;42.650;23.248;2023-05-18T13:09:14;92583.88;;;11.09;89.29
53041;BME280;39326;42.650;23.248;2023-05-18T13:11:40;92578.47;;;11.20;89.07
53041;BME280;39326;42.650;23.248;2023-05-18T13:14:07;92576.59;;;11.16;88.91
53041;BME280;39326;42.650;23.248;2023-05-18T13:16:33;92579.66;;;11.01;90.22
53041;BME280;39326;42.650;23.248;2023-05-18T13:19:04;92580.84;;;10.85;90.54
53041;BME280;39326;42.650;23.248;2023-05-18T13:21:31;92581.22;;;10.91;90.33
53041;BME280;39326;42.650;23.248;2023-05-18T13:23:56;92584.25;;;10.89;90.91